createdAt,value
2023-01-21T00:01:06.827Z,5.28
2023-01-21T00:03:34.258Z,5.57
2023-01-21T00:06:01.432Z,5.68
2023-01-21T00:08:28.374Z,5.43
2023-01-21T00:10:55.564Z,6.13
2023-01-21T00:13:22.907Z,6.95
2023-01-21T00:15:50.149Z,7.63
2023-01-21T00:18:17.059Z,7.05
2023-01-21T00:20:45.654Z,9.57
2023-01-21T00:23:13.011Z,8.82
2023-01-21T00:25:39.941Z,7.95
2023-01-21T00:28:06.767Z,7.30
2023-01-21T00:30:33.778Z,6.50
2023-01-21T00:33:00.644Z,6.32
2023-01-21T00:35:27.584Z,6.45
2023-01-21T00:37:54.616Z,7.45
2023-01-21T00:40:21.947Z,7.28
2023-01-21T00:42:48.819Z,7.07
2023-01-21T00:45:15.743Z,7.18
2023-01-21T00:47:42.724Z,7.18
2023-01-21T00:50:10.350Z,6.43
2023-01-21T00:52:37.205Z,6.53
2023-01-21T00:55:04.767Z,6.57
2023-01-21T00:57:31.671Z,5.97
2023-01-21T00:59:58.701Z,6.72
2023-01-21T01:02:25.637Z,5.72
2023-01-21T01:04:52.508Z,6.50
2023-01-21T01:07:19.373Z,6.25
2023-01-21T01:09:46.281Z,5.80
2023-01-21T01:12:13.084Z,6.90
2023-01-21T01:14:39.998Z,6.70
2023-01-21T01:17:06.801Z,6.07
2023-01-21T01:19:33.623Z,5.80
2023-01-21T01:22:00.428Z,5.28
2023-01-21T01:24:27.326Z,6.18
2023-01-21T01:26:54.215Z,5.88
2023-01-21T01:29:21.072Z,5.65
2023-01-21T01:31:47.920Z,5.50
2023-01-21T01:34:14.817Z,6.40
2023-01-21T01:36:41.676Z,6.38
2023-01-21T01:39:08.512Z,5.82
2023-01-21T01:41:35.522Z,6.57
2023-01-21T01:44:40.151Z,6.45
2023-01-21T01:47:07.042Z,6.32
2023-01-21T01:49:33.985Z,6.07
2023-01-21T01:52:04.404Z,5.85
2023-01-21T01:54:43.095Z,5.70
2023-01-21T01:57:13.053Z,6.18
2023-01-21T01:59:40.977Z,5.68
2023-01-21T02:02:10.937Z,5.80
2023-01-21T02:05:00.171Z,6.35
2023-01-21T02:07:28.876Z,5.90
2023-01-21T02:09:56.504Z,6.38
2023-01-21T02:12:23.397Z,6.20
2023-01-21T02:14:50.766Z,5.80
2023-01-21T02:17:40.475Z,5.70
2023-01-21T02:20:46.385Z,5.43
2023-01-21T02:23:20.760Z,5.88
2023-01-21T02:26:20.975Z,5.45
2023-01-21T02:29:14.439Z,5.18
2023-01-21T02:32:08.037Z,5.30
2023-01-21T02:34:37.878Z,4.63
2023-01-21T02:37:17.371Z,5.07
2023-01-21T02:40:02.462Z,5.03
2023-01-21T02:42:32.891Z,4.47
2023-01-21T02:45:27.202Z,4.93
2023-01-21T02:48:08.675Z,5.00
2023-01-21T02:51:05.041Z,4.40
2023-01-21T02:53:34.338Z,4.95
2023-01-21T02:56:14.764Z,4.72
2023-01-21T02:58:54.210Z,4.85
2023-01-21T03:01:35.354Z,4.50
2023-01-21T03:04:23.395Z,4.72
2023-01-21T03:06:59.726Z,4.55
2023-01-21T03:09:29.588Z,4.68
2023-01-21T03:12:09.142Z,4.70
2023-01-21T03:15:14.354Z,5.13
2023-01-21T03:17:54.582Z,4.75
2023-01-21T03:20:34.130Z,6.25
2023-01-21T03:23:05.359Z,4.95
2023-01-21T03:25:34.092Z,5.13
2023-01-21T03:28:04.796Z,4.82
2023-01-21T03:30:34.263Z,5.03
2023-01-21T03:33:02.509Z,5.50
2023-01-21T03:35:33.723Z,5.07
2023-01-21T03:38:27.028Z,4.80
2023-01-21T03:41:06.103Z,4.65
2023-01-21T03:43:33.137Z,5.10
2023-01-21T03:46:04.825Z,6.32
2023-01-21T03:48:57.376Z,6.07
2023-01-21T03:51:31.596Z,5.45
2023-01-21T03:53:59.738Z,6.13
2023-01-21T03:56:27.626Z,5.32
2023-01-21T03:58:54.777Z,5.18
2023-01-21T04:01:22.011Z,5.13
2023-01-21T04:03:48.969Z,4.68
2023-01-21T04:06:20.808Z,5.30
2023-01-21T04:08:48.063Z,4.95
2023-01-21T04:11:15.116Z,4.93
2023-01-21T04:13:42.110Z,5.00
2023-01-21T04:16:09.273Z,5.45
2023-01-21T04:18:36.399Z,4.72
2023-01-21T04:21:03.310Z,4.72
2023-01-21T04:23:30.456Z,5.47
2023-01-21T04:25:57.281Z,5.40
2023-01-21T04:28:24.106Z,5.32
2023-01-21T04:30:51.027Z,5.47
2023-01-21T04:33:18.272Z,5.85
2023-01-21T04:35:45.218Z,5.95
2023-01-21T04:38:12.282Z,4.80
2023-01-21T04:40:39.133Z,5.32
2023-01-21T04:43:05.993Z,5.55
2023-01-21T04:45:32.847Z,5.45
2023-01-21T04:47:59.722Z,5.38
2023-01-21T04:50:26.703Z,5.60
2023-01-21T04:52:53.526Z,4.97
2023-01-21T04:55:20.448Z,5.32
2023-01-21T04:57:47.341Z,5.38
2023-01-21T05:00:14.925Z,5.38
2023-01-21T05:02:41.927Z,4.43
2023-01-21T05:05:08.871Z,4.82
2023-01-21T05:07:35.946Z,4.70
2023-01-21T05:10:02.836Z,5.00
2023-01-21T05:12:29.798Z,5.65
2023-01-21T05:14:59.929Z,5.43
2023-01-21T05:17:27.147Z,4.82
2023-01-21T05:19:53.984Z,5.35
2023-01-21T05:22:20.796Z,4.93
2023-01-21T05:24:48.058Z,5.68
2023-01-21T05:27:15.942Z,5.53
2023-01-21T05:29:42.867Z,5.53
2023-01-21T05:32:10.439Z,5.40
2023-01-21T05:34:37.317Z,5.10
2023-01-21T05:37:04.126Z,5.72
2023-01-21T05:39:30.990Z,6.10
2023-01-21T05:41:57.807Z,5.78
2023-01-21T05:44:24.636Z,5.43
2023-01-21T05:46:51.495Z,5.25
2023-01-21T05:49:18.383Z,5.50
2023-01-21T05:51:45.292Z,5.63
2023-01-21T05:54:12.138Z,5.10
2023-01-21T05:56:38.962Z,5.55
2023-01-21T05:59:05.783Z,5.15
2023-01-21T06:01:32.660Z,4.97
2023-01-21T06:03:59.488Z,5.90
2023-01-21T06:06:26.332Z,6.22
2023-01-21T06:08:53.131Z,5.70
2023-01-21T06:11:20.023Z,5.55
2023-01-21T06:13:46.937Z,5.40
2023-01-21T06:16:13.861Z,6.05
2023-01-21T06:18:40.807Z,5.65
2023-01-21T06:21:07.748Z,5.43
2023-01-21T06:23:34.752Z,5.65
2023-01-21T06:26:02.547Z,6.10
2023-01-21T06:28:30.307Z,6.43
2023-01-21T06:30:57.425Z,6.03
2023-01-21T06:33:24.407Z,6.18
2023-01-21T06:35:51.663Z,6.03
2023-01-21T06:38:18.493Z,6.47
2023-01-21T06:40:45.348Z,6.28
2023-01-21T06:43:12.249Z,6.07
2023-01-21T06:45:39.078Z,6.72
2023-01-21T06:48:06.060Z,5.68
2023-01-21T06:50:32.923Z,6.03
2023-01-21T06:52:59.774Z,5.57
2023-01-21T06:55:26.586Z,6.43
2023-01-21T06:57:53.427Z,6.53
2023-01-21T07:00:20.753Z,7.20
2023-01-21T07:02:47.680Z,7.85
2023-01-21T07:05:15.560Z,7.40
2023-01-21T07:07:42.606Z,8.05
2023-01-21T07:10:10.207Z,8.63
2023-01-21T07:12:37.068Z,8.52
2023-01-21T07:15:04.376Z,10.20
2023-01-21T07:17:31.170Z,11.77
2023-01-21T07:19:58.415Z,9.50
2023-01-21T07:22:25.400Z,8.88
2023-01-21T07:24:52.296Z,10.27
2023-01-21T07:27:19.145Z,11.60
2023-01-21T07:29:45.987Z,14.80
2023-01-21T07:32:12.829Z,12.10
2023-01-21T07:34:39.666Z,14.63
2023-01-21T07:37:06.729Z,15.02
2023-01-21T07:39:33.612Z,17.08
2023-01-21T07:42:00.513Z,17.70
2023-01-21T07:44:27.471Z,18.63
2023-01-21T07:46:54.404Z,18.50
2023-01-21T07:49:21.360Z,20.25
2023-01-21T07:51:48.881Z,21.15
2023-01-21T07:54:15.869Z,20.83
2023-01-21T07:56:42.848Z,20.63
2023-01-21T07:59:11.421Z,21.65
2023-01-21T08:01:38.247Z,21.38
2023-01-21T08:04:07.081Z,22.35
2023-01-21T08:06:33.996Z,21.50
2023-01-21T08:09:00.799Z,21.10
2023-01-21T08:11:27.645Z,22.92
2023-01-21T08:13:54.522Z,22.38
2023-01-21T08:16:21.504Z,21.88
2023-01-21T08:18:48.285Z,21.85
2023-01-21T08:21:15.220Z,21.70
2023-01-21T08:23:42.045Z,22.40
2023-01-21T08:26:08.917Z,23.55
2023-01-21T08:28:35.943Z,22.45
2023-01-21T08:31:08.689Z,22.17
2023-01-21T08:33:35.711Z,23.30
2023-01-21T08:36:04.310Z,23.52
2023-01-21T08:38:31.088Z,22.90
2023-01-21T08:40:58.491Z,22.80
2023-01-21T08:43:25.915Z,23.38
2023-01-21T08:45:56.645Z,24.67
2023-01-21T08:48:23.599Z,22.60
2023-01-21T08:50:50.632Z,21.67
2023-01-21T08:53:17.564Z,21.67
2023-01-21T08:55:44.508Z,21.88
2023-01-21T08:58:11.359Z,22.83
2023-01-21T09:00:38.304Z,23.20
2023-01-21T09:03:05.164Z,22.40
2023-01-21T09:05:32.149Z,22.23
2023-01-21T09:07:59.218Z,22.48
2023-01-21T09:10:44.656Z,22.27
2023-01-21T09:13:11.546Z,20.60
2023-01-21T09:15:42.862Z,22.08
2023-01-21T09:18:10.049Z,21.52
2023-01-21T09:20:39.173Z,19.40
2023-01-21T09:23:24.403Z,21.08
2023-01-21T09:25:55.839Z,21.98
2023-01-21T09:28:23.849Z,19.55
2023-01-21T09:31:05.958Z,17.92
2023-01-21T09:33:35.205Z,17.50
2023-01-21T09:36:05.902Z,20.52
2023-01-21T09:38:33.662Z,19.05
2023-01-21T09:41:23.647Z,17.77
2023-01-21T09:44:22.141Z,19.70
2023-01-21T09:47:07.624Z,18.70
2023-01-21T09:49:54.662Z,17.70
2023-01-21T09:52:21.530Z,18.42
2023-01-21T09:54:48.701Z,17.95
2023-01-21T09:57:15.456Z,18.00
2023-01-21T09:59:55.180Z,19.33
2023-01-21T10:02:32.819Z,20.00
2023-01-21T10:05:24.501Z,19.15
2023-01-21T10:08:06.221Z,19.67
2023-01-21T10:10:54.792Z,18.08
2023-01-21T10:13:47.994Z,16.80
2023-01-21T10:18:58.879Z,15.80
2023-01-21T10:21:52.584Z,14.57
2023-01-21T10:24:31.341Z,14.55
2023-01-21T10:26:59.541Z,13.07
2023-01-21T10:29:27.129Z,12.82
2023-01-21T10:32:02.638Z,12.90
2023-01-21T10:34:43.991Z,13.50
2023-01-21T10:37:13.937Z,12.38
2023-01-21T10:40:42.704Z,13.65
2023-01-21T10:43:38.702Z,12.73
2023-01-21T10:46:15.797Z,15.32
2023-01-21T10:49:26.711Z,13.50
2023-01-21T10:52:05.266Z,14.68
2023-01-21T10:55:03.408Z,14.48
2023-01-21T10:57:42.639Z,15.15
2023-01-21T11:00:39.418Z,14.48
2023-01-21T11:07:17.621Z,16.42
2023-01-21T11:09:47.832Z,12.30
2023-01-21T11:12:21.727Z,16.40
2023-01-21T11:14:57.268Z,14.90
2023-01-21T11:17:40.020Z,15.82
2023-01-21T11:20:27.495Z,15.93
2023-01-21T11:22:54.425Z,15.20
2023-01-21T11:25:49.153Z,14.98
2023-01-21T11:28:27.527Z,14.57
2023-01-21T11:31:14.689Z,14.48
2023-01-21T11:33:43.442Z,14.77
2023-01-21T11:36:18.482Z,16.05
2023-01-21T11:38:47.372Z,16.27
2023-01-21T11:41:22.702Z,17.00
2023-01-21T11:43:52.736Z,17.27
2023-01-21T11:46:29.667Z,16.17
2023-01-21T11:49:17.824Z,17.25
2023-01-21T11:51:46.734Z,17.60
2023-01-21T11:54:19.336Z,16.77
2023-01-21T11:56:55.761Z,16.60
2023-01-21T11:59:29.822Z,16.42
2023-01-21T12:02:05.334Z,16.38
2023-01-21T12:04:34.190Z,16.33
2023-01-21T12:07:01.550Z,15.95
2023-01-21T12:09:29.303Z,14.65
2023-01-21T12:12:41.013Z,15.07
2023-01-21T12:15:40.656Z,15.00
2023-01-21T12:18:17.065Z,14.65
2023-01-21T12:20:57.688Z,15.00
2023-01-21T12:23:43.595Z,15.35
2023-01-21T12:26:27.126Z,14.15
2023-01-21T12:29:12.331Z,14.18
2023-01-21T12:31:54.458Z,15.38
2023-01-21T12:34:45.100Z,15.88
2023-01-21T12:37:18.318Z,15.88
2023-01-21T12:39:49.340Z,15.48
2023-01-21T12:42:21.146Z,15.60
2023-01-21T12:44:53.033Z,16.60
2023-01-21T12:47:46.106Z,15.60
2023-01-21T12:53:03.840Z,14.60
2023-01-21T12:55:58.769Z,15.20
2023-01-21T12:58:30.777Z,14.80
2023-01-21T13:01:01.141Z,17.00
2023-01-21T13:03:51.947Z,15.55
2023-01-21T13:06:42.515Z,14.88
2023-01-21T13:09:31.113Z,16.17
2023-01-21T13:12:25.784Z,16.17
2023-01-21T13:15:13.639Z,14.95
2023-01-21T13:17:43.460Z,14.88
2023-01-21T13:20:19.177Z,15.32
2023-01-21T13:23:07.258Z,15.50
2023-01-21T13:25:42.422Z,14.90
2023-01-21T13:28:33.431Z,16.48
2023-01-21T13:31:33.456Z,15.35
2023-01-21T13:34:03.023Z,16.00
2023-01-21T13:36:48.516Z,15.23
2023-01-21T13:39:18.267Z,15.35
2023-01-21T13:41:55.182Z,16.23
2023-01-21T13:44:27.549Z,16.23
2023-01-21T13:46:59.280Z,15.35
2023-01-21T13:49:35.189Z,15.60
2023-01-21T13:52:26.880Z,15.30
2023-01-21T13:54:56.335Z,14.70
2023-01-21T13:57:54.971Z,14.63
2023-01-21T14:00:46.247Z,14.68
2023-01-21T14:03:24.916Z,14.93
2023-01-21T14:06:24.628Z,14.32
2023-01-21T14:08:59.019Z,14.85
2023-01-21T14:11:31.674Z,15.68
2023-01-21T14:16:59.716Z,14.65
2023-01-21T14:20:02.088Z,10.90
2023-01-21T14:22:56.851Z,14.00
2023-01-21T14:25:38.673Z,14.07
2023-01-21T14:28:30.991Z,13.77
2023-01-21T14:31:06.937Z,14.02
2023-01-21T14:33:50.521Z,13.95
2023-01-21T14:36:36.535Z,14.05
2023-01-21T14:39:29.893Z,14.82
2023-01-21T14:42:16.250Z,14.52
2023-01-21T14:44:49.042Z,14.43
2023-01-21T14:47:29.416Z,14.85
2023-01-21T14:49:58.633Z,15.35
2023-01-21T14:52:31.348Z,15.60
2023-01-21T14:57:37.426Z,14.23
2023-01-21T15:00:11.735Z,14.70
2023-01-21T15:02:45.934Z,15.48
2023-01-21T15:05:28.359Z,15.32
2023-01-21T15:08:23.164Z,15.75
2023-01-21T15:11:01.583Z,15.00
2023-01-21T15:13:35.189Z,15.52
2023-01-21T15:16:16.124Z,13.95
2023-01-21T15:19:04.910Z,15.10
2023-01-21T15:21:40.448Z,15.38
2023-01-21T15:24:18.981Z,15.10
2023-01-21T15:27:35.098Z,14.30
2023-01-21T15:30:04.654Z,14.25
2023-01-21T15:32:44.715Z,14.95
2023-01-21T15:35:15.889Z,14.30
2023-01-21T15:37:45.807Z,14.88
2023-01-21T15:40:21.277Z,14.73
2023-01-21T15:43:09.364Z,14.82
2023-01-21T15:45:59.219Z,14.40
2023-01-21T15:48:42.246Z,13.73
2023-01-21T15:51:44.812Z,13.85
2023-01-21T15:54:32.364Z,13.60
2023-01-21T15:57:30.663Z,13.73
2023-01-21T16:00:07.365Z,13.38
2023-01-21T16:03:02.432Z,12.30
2023-01-21T16:05:38.789Z,12.85
2023-01-21T16:08:18.138Z,12.38
2023-01-21T16:10:55.936Z,13.57
2023-01-21T16:13:52.916Z,13.18
2023-01-21T16:16:47.039Z,13.05
2023-01-21T16:19:21.656Z,13.32
2023-01-21T16:21:54.224Z,13.85
2023-01-21T16:24:25.631Z,14.05
2023-01-21T16:26:52.421Z,13.15
2023-01-21T16:29:19.206Z,11.02
2023-01-21T16:31:59.849Z,12.60
2023-01-21T16:34:42.910Z,13.00
2023-01-21T16:39:42.530Z,11.77
2023-01-21T16:42:22.565Z,12.88
2023-01-21T16:44:50.009Z,12.95
2023-01-21T16:47:42.736Z,11.43
2023-01-21T16:50:24.706Z,12.25
2023-01-21T16:52:54.448Z,11.15
2023-01-21T16:55:26.500Z,11.32
2023-01-21T16:57:56.790Z,10.65
2023-01-21T17:00:31.095Z,9.93
2023-01-21T17:02:59.528Z,11.20
2023-01-21T17:05:35.496Z,10.35
2023-01-21T17:08:09.893Z,11.57
2023-01-21T17:10:57.521Z,9.93
2023-01-21T17:13:25.157Z,10.70
2023-01-21T17:15:58.075Z,11.35
2023-01-21T17:18:26.968Z,10.88
2023-01-21T17:20:55.244Z,9.70
2023-01-21T17:23:34.893Z,10.95
2023-01-21T17:26:14.627Z,9.55
2023-01-21T17:28:59.714Z,11.18
2023-01-21T17:31:31.423Z,10.98
2023-01-21T17:34:16.701Z,11.25
2023-01-21T17:36:46.296Z,11.43
2023-01-21T17:39:13.928Z,10.98
2023-01-21T17:41:44.324Z,11.32
2023-01-21T17:44:19.442Z,12.63
2023-01-21T17:46:48.492Z,12.27
2023-01-21T17:49:18.603Z,11.48
2023-01-21T17:51:46.104Z,11.02
2023-01-21T17:54:19.443Z,11.90
2023-01-21T17:56:57.847Z,13.05
2023-01-21T17:59:38.469Z,12.63
2023-01-21T18:02:09.509Z,13.63
2023-01-21T18:04:36.275Z,12.32
2023-01-21T18:07:06.427Z,12.30
2023-01-21T18:09:34.929Z,12.43
2023-01-21T18:12:01.864Z,11.73
2023-01-21T18:14:28.813Z,10.85
2023-01-21T18:16:55.765Z,11.57
2023-01-21T18:19:36.604Z,11.15
2023-01-21T18:22:05.790Z,10.63
2023-01-21T18:24:32.824Z,12.13
2023-01-21T18:27:01.718Z,11.60
2023-01-21T18:29:30.516Z,12.90
2023-01-21T18:31:58.104Z,12.63
2023-01-21T18:34:25.253Z,14.20
2023-01-21T18:36:52.104Z,14.38
2023-01-21T18:39:20.286Z,13.73
2023-01-21T18:41:47.115Z,15.73
2023-01-21T18:44:14.467Z,12.70
2023-01-21T18:46:43.208Z,13.10
2023-01-21T18:49:18.873Z,11.85
2023-01-21T18:51:46.815Z,11.93
2023-01-21T18:54:14.647Z,12.98
2023-01-21T18:56:42.951Z,12.52
2023-01-21T18:59:15.301Z,13.65
2023-01-21T19:01:42.923Z,12.80
2023-01-21T19:04:14.249Z,12.63
2023-01-21T19:06:41.475Z,11.57
2023-01-21T19:09:21.347Z,13.27
2023-01-21T19:11:48.415Z,13.75
2023-01-21T19:14:15.503Z,15.30
2023-01-21T19:16:44.015Z,14.98
2023-01-21T19:19:12.488Z,15.43
2023-01-21T19:21:39.559Z,16.70
2023-01-21T19:24:08.267Z,15.02
2023-01-21T19:26:38.486Z,16.08
2023-01-21T19:29:07.702Z,16.05
2023-01-21T19:31:34.627Z,16.38
2023-01-21T19:34:01.610Z,15.25
2023-01-21T19:36:28.445Z,15.38
2023-01-21T19:38:57.458Z,15.20
2023-01-21T19:41:24.845Z,16.75
2023-01-21T19:43:51.631Z,16.30
2023-01-21T19:46:18.884Z,16.17
2023-01-21T19:48:49.877Z,17.02
2023-01-21T19:51:16.769Z,16.73
2023-01-21T19:53:43.592Z,16.85
2023-01-21T19:56:20.375Z,16.15
2023-01-21T19:58:48.504Z,16.25
2023-01-21T20:01:15.337Z,15.95
2023-01-21T20:03:54.625Z,16.08
2023-01-21T20:06:27.230Z,16.65
2023-01-21T20:08:54.197Z,16.15
2023-01-21T20:11:22.021Z,16.52
2023-01-21T20:13:48.959Z,17.30
2023-01-21T20:16:18.956Z,16.00
2023-01-21T20:18:46.410Z,15.63
2023-01-21T20:21:13.322Z,15.13
2023-01-21T20:23:40.295Z,14.05
2023-01-21T20:26:11.735Z,15.70
2023-01-21T20:28:44.462Z,15.45
2023-01-21T20:33:38.866Z,15.60
2023-01-21T20:36:12.167Z,15.13
2023-01-21T20:38:38.999Z,15.52
2023-01-21T20:41:06.303Z,15.75
2023-01-21T20:43:33.172Z,15.55
2023-01-21T20:46:03.000Z,15.45
2023-01-21T20:48:34.032Z,14.15
2023-01-21T20:51:01.412Z,14.75
2023-01-21T20:53:28.719Z,14.80
2023-01-21T20:55:55.809Z,14.20
2023-01-21T20:58:22.709Z,15.38
2023-01-21T21:00:50.240Z,15.50
2023-01-21T21:03:18.600Z,16.02
2023-01-21T21:05:47.031Z,15.35
2023-01-21T21:08:16.816Z,14.93
2023-01-21T21:10:44.061Z,14.82
2023-01-21T21:13:12.716Z,15.10
2023-01-21T21:15:40.959Z,15.02
2023-01-21T21:18:07.829Z,14.88
2023-01-21T21:20:38.684Z,15.55
2023-01-21T21:23:12.213Z,14.93
2023-01-21T21:25:43.571Z,15.77
2023-01-21T21:28:13.383Z,16.17
2023-01-21T21:30:40.421Z,15.25
2023-01-21T21:33:18.615Z,15.90
2023-01-21T21:35:46.748Z,13.98
2023-01-21T21:38:21.694Z,15.20
2023-01-21T21:40:52.863Z,13.38
2023-01-21T21:43:33.627Z,13.23
2023-01-21T21:46:31.356Z,13.55
2023-01-21T21:48:58.181Z,13.52
2023-01-21T21:51:25.323Z,15.05
2023-01-21T21:53:52.202Z,14.68
2023-01-21T21:56:21.518Z,14.38
2023-01-21T21:58:49.050Z,12.38
2023-01-21T22:01:21.636Z,13.70
2023-01-21T22:06:18.370Z,12.80
2023-01-21T22:08:45.313Z,13.43
2023-01-21T22:11:17.876Z,12.73
2023-01-21T22:13:50.097Z,13.80
2023-01-21T22:16:20.914Z,13.43
2023-01-21T22:18:48.098Z,14.07
2023-01-21T22:21:18.604Z,14.85
2023-01-21T22:23:45.504Z,14.02
2023-01-21T22:26:15.209Z,13.68
2023-01-21T22:28:43.243Z,13.63
2023-01-21T22:31:16.310Z,14.02
2023-01-21T22:33:43.859Z,14.18
2023-01-21T22:36:16.026Z,14.25
2023-01-21T22:38:43.454Z,13.02
2023-01-21T22:41:12.832Z,13.85
2023-01-21T22:43:49.810Z,14.02
2023-01-21T22:46:21.438Z,13.60
2023-01-21T22:48:48.519Z,13.50
2023-01-21T22:51:17.463Z,13.85
2023-01-21T22:53:44.917Z,14.25
2023-01-21T22:56:14.416Z,14.05
2023-01-21T22:58:41.812Z,13.82
2023-01-21T23:01:19.415Z,12.35
2023-01-21T23:03:46.303Z,12.88
2023-01-21T23:06:13.160Z,13.45
2023-01-21T23:08:39.957Z,12.13
2023-01-21T23:11:08.582Z,12.43
2023-01-21T23:13:35.977Z,14.20
2023-01-21T23:16:06.703Z,11.77
2023-01-21T23:18:36.040Z,12.38
2023-01-21T23:21:07.322Z,13.73
2023-01-21T23:23:37.199Z,11.10
2023-01-21T23:26:05.982Z,12.57
2023-01-21T23:28:36.632Z,13.27
2023-01-21T23:31:15.859Z,12.30
2023-01-21T23:33:42.800Z,11.73
2023-01-21T23:36:13.042Z,12.43
2023-01-21T23:38:41.924Z,12.68
2023-01-21T23:41:11.243Z,12.63
2023-01-21T23:43:38.198Z,12.55
2023-01-21T23:46:14.419Z,12.25
2023-01-21T23:48:41.256Z,12.13
2023-01-21T23:51:10.896Z,10.55
2023-01-21T23:53:37.726Z,12.32
2023-01-21T23:56:12.136Z,12.40
2023-01-21T23:58:39.581Z,12.98
